sensor_id;sensor_type;location;lat;lon;timestamp;P1;durP1;ratioP1;P2;durP2;ratioP2
55827;SDS011;41758;51.992;5.890;2023-04-21T00:02:23;11.68;;;9.27;;
55827;SDS011;41758;51.992;5.890;2023-04-21T00:04:50;13.93;;;11.30;;
55827;SDS011;41758;51.992;5.890;2023-04-21T00:07:16;14.20;;;10.75;;
55827;SDS011;41758;51.992;5.890;2023-04-21T00:09:43;13.10;;;10.38;;
55827;SDS011;41758;51.992;5.890;2023-04-21T00:12:09;12.70;;;10.23;;
55827;SDS011;41758;51.992;5.890;2023-04-21T00:14:35;12.65;;;9.82;;
55827;SDS011;41758;51.992;5.890;2023-04-21T00:17:01;13.35;;;10.02;;
55827;SDS011;41758;51.992;5.890;2023-04-21T00:19:27;13.32;;;10.05;;
55827;SDS011;41758;51.992;5.890;2023-04-21T00:21:53;11.95;;;9.55;;
55827;SDS011;41758;51.992;5.890;2023-04-21T00:24:23;11.35;;;9.18;;
55827;SDS011;41758;51.992;5.890;2023-04-21T00:26:49;10.48;;;8.48;;
55827;SDS011;41758;51.992;5.890;2023-04-21T00:29:15;9.18;;;7.72;;
55827;SDS011;41758;51.992;5.890;2023-04-21T00:31:41;11.32;;;8.52;;
55827;SDS011;41758;51.992;5.890;2023-04-21T00:34:07;11.90;;;9.90;;
55827;SDS011;41758;51.992;5.890;2023-04-21T00:36:33;11.35;;;9.80;;
55827;SDS011;41758;51.992;5.890;2023-04-21T00:38:58;11.80;;;10.25;;
55827;SDS011;41758;51.992;5.890;2023-04-21T00:41:24;12.20;;;9.70;;
55827;SDS011;41758;51.992;5.890;2023-04-21T00:43:58;11.27;;;9.25;;
55827;SDS011;41758;51.992;5.890;2023-04-21T00:46:25;13.85;;;11.57;;
55827;SDS011;41758;51.992;5.890;2023-04-21T00:48:52;13.90;;;11.18;;
55827;SDS011;41758;51.992;5.890;2023-04-21T00:51:19;13.45;;;10.73;;
55827;SDS011;41758;51.992;5.890;2023-04-21T00:53:45;13.73;;;11.68;;
55827;SDS011;41758;51.992;5.890;2023-04-21T00:56:11;14.27;;;10.10;;
55827;SDS011;41758;51.992;5.890;2023-04-21T00:58:37;12.65;;;9.75;;
55827;SDS011;41758;51.992;5.890;2023-04-21T01:01:06;11.30;;;8.38;;
55827;SDS011;41758;51.992;5.890;2023-04-21T01:03:32;11.18;;;8.65;;
55827;SDS011;41758;51.992;5.890;2023-04-21T01:05:58;9.90;;;7.47;;
55827;SDS011;41758;51.992;5.890;2023-04-21T01:08:25;10.02;;;7.85;;
55827;SDS011;41758;51.992;5.890;2023-04-21T01:10:51;10.25;;;7.63;;
55827;SDS011;41758;51.992;5.890;2023-04-21T01:13:20;10.15;;;8.30;;
55827;SDS011;41758;51.992;5.890;2023-04-21T01:15:50;11.07;;;7.93;;
55827;SDS011;41758;51.992;5.890;2023-04-21T01:18:15;8.75;;;7.20;;
55827;SDS011;41758;51.992;5.890;2023-04-21T01:20:42;12.05;;;9.10;;
55827;SDS011;41758;51.992;5.890;2023-04-21T01:23:11;11.45;;;9.00;;
55827;SDS011;41758;51.992;5.890;2023-04-21T01:25:36;12.15;;;9.48;;
55827;SDS011;41758;51.992;5.890;2023-04-21T01:28:02;11.18;;;8.50;;
55827;SDS011;41758;51.992;5.890;2023-04-21T01:30:28;11.43;;;9.68;;
55827;SDS011;41758;51.992;5.890;2023-04-21T01:32:54;11.90;;;8.93;;
55827;SDS011;41758;51.992;5.890;2023-04-21T01:35:20;13.20;;;10.25;;
55827;SDS011;41758;51.992;5.890;2023-04-21T01:37:45;15.27;;;9.70;;
55827;SDS011;41758;51.992;5.890;2023-04-21T01:40:11;11.70;;;9.43;;
55827;SDS011;41758;51.992;5.890;2023-04-21T01:42:38;12.50;;;10.65;;
55827;SDS011;41758;51.992;5.890;2023-04-21T01:45:05;11.90;;;9.38;;
55827;SDS011;41758;51.992;5.890;2023-04-21T01:47:32;12.35;;;9.35;;
55827;SDS011;41758;51.992;5.890;2023-04-21T01:49:57;11.60;;;9.25;;
55827;SDS011;41758;51.992;5.890;2023-04-21T01:52:23;12.52;;;10.10;;
55827;SDS011;41758;51.992;5.890;2023-04-21T01:54:51;12.38;;;10.30;;
55827;SDS011;41758;51.992;5.890;2023-04-21T01:57:17;14.00;;;10.93;;
55827;SDS011;41758;51.992;5.890;2023-04-21T01:59:43;14.10;;;10.82;;
55827;SDS011;41758;51.992;5.890;2023-04-21T02:02:09;12.68;;;10.93;;
55827;SDS011;41758;51.992;5.890;2023-04-21T02:04:35;12.30;;;10.93;;
55827;SDS011;41758;51.992;5.890;2023-04-21T02:07:01;13.65;;;10.93;;
55827;SDS011;41758;51.992;5.890;2023-04-21T02:09:27;12.55;;;10.98;;
55827;SDS011;41758;51.992;5.890;2023-04-21T02:11:54;13.40;;;11.60;;
55827;SDS011;41758;51.992;5.890;2023-04-21T02:14:21;14.00;;;11.27;;
55827;SDS011;41758;51.992;5.890;2023-04-21T02:16:47;12.18;;;10.40;;
55827;SDS011;41758;51.992;5.890;2023-04-21T02:19:13;13.30;;;9.90;;
55827;SDS011;41758;51.992;5.890;2023-04-21T02:21:38;11.48;;;9.85;;
55827;SDS011;41758;51.992;5.890;2023-04-21T02:24:04;19.77;;;11.77;;
55827;SDS011;41758;51.992;5.890;2023-04-21T02:26:30;19.05;;;12.02;;
55827;SDS011;41758;51.992;5.890;2023-04-21T02:28:58;13.55;;;10.43;;
55827;SDS011;41758;51.992;5.890;2023-04-21T02:31:24;11.48;;;9.70;;
55827;SDS011;41758;51.992;5.890;2023-04-21T02:33:50;10.60;;;9.48;;
55827;SDS011;41758;51.992;5.890;2023-04-21T02:36:15;13.45;;;10.63;;
55827;SDS011;41758;51.992;5.890;2023-04-21T02:38:41;13.55;;;10.02;;
55827;SDS011;41758;51.992;5.890;2023-04-21T02:41:08;19.27;;;11.32;;
55827;SDS011;41758;51.992;5.890;2023-04-21T02:43:34;12.25;;;10.52;;
55827;SDS011;41758;51.992;5.890;2023-04-21T02:46:04;14.75;;;11.00;;
55827;SDS011;41758;51.992;5.890;2023-04-21T02:48:32;14.68;;;10.45;;
55827;SDS011;41758;51.992;5.890;2023-04-21T02:50:58;14.40;;;10.77;;
55827;SDS011;41758;51.992;5.890;2023-04-21T02:53:24;14.02;;;9.40;;
55827;SDS011;41758;51.992;5.890;2023-04-21T02:55:51;14.35;;;12.00;;
55827;SDS011;41758;51.992;5.890;2023-04-21T02:58:16;13.65;;;11.43;;
55827;SDS011;41758;51.992;5.890;2023-04-21T03:00:42;16.52;;;11.85;;
55827;SDS011;41758;51.992;5.890;2023-04-21T03:03:08;14.68;;;13.00;;
55827;SDS011;41758;51.992;5.890;2023-04-21T03:05:34;17.48;;;13.85;;
55827;SDS011;41758;51.992;5.890;2023-04-21T03:08:00;23.00;;;15.40;;
55827;SDS011;41758;51.992;5.890;2023-04-21T03:10:26;18.98;;;14.10;;
55827;SDS011;41758;51.992;5.890;2023-04-21T03:12:54;22.02;;;13.35;;
55827;SDS011;41758;51.992;5.890;2023-04-21T03:15:20;11.43;;;10.00;;
55827;SDS011;41758;51.992;5.890;2023-04-21T03:17:46;43.20;;;16.77;;
55827;SDS011;41758;51.992;5.890;2023-04-21T03:20:12;56.75;;;17.85;;
55827;SDS011;41758;51.992;5.890;2023-04-21T03:22:38;47.50;;;17.40;;
55827;SDS011;41758;51.992;5.890;2023-04-21T03:25:04;48.90;;;18.30;;
55827;SDS011;41758;51.992;5.890;2023-04-21T03:27:31;60.90;;;19.95;;
55827;SDS011;41758;51.992;5.890;2023-04-21T03:29:57;67.90;;;20.23;;
55827;SDS011;41758;51.992;5.890;2023-04-21T03:32:23;65.05;;;19.88;;
55827;SDS011;41758;51.992;5.890;2023-04-21T03:34:49;59.78;;;20.25;;
55827;SDS011;41758;51.992;5.890;2023-04-21T03:37:16;59.20;;;21.80;;
55827;SDS011;41758;51.992;5.890;2023-04-21T03:39:42;62.30;;;23.02;;
55827;SDS011;41758;51.992;5.890;2023-04-21T03:42:08;64.95;;;22.77;;
55827;SDS011;41758;51.992;5.890;2023-04-21T03:44:33;63.83;;;22.77;;
55827;SDS011;41758;51.992;5.890;2023-04-21T03:47:00;61.40;;;22.83;;
55827;SDS011;41758;51.992;5.890;2023-04-21T03:49:27;66.25;;;22.50;;
55827;SDS011;41758;51.992;5.890;2023-04-21T03:51:53;54.85;;;21.02;;
55827;SDS011;41758;51.992;5.890;2023-04-21T03:54:19;60.17;;;23.77;;
55827;SDS011;41758;51.992;5.890;2023-04-21T03:56:44;74.45;;;24.48;;
55827;SDS011;41758;51.992;5.890;2023-04-21T03:59:10;59.05;;;20.90;;
55827;SDS011;41758;51.992;5.890;2023-04-21T04:01:36;75.43;;;24.40;;
55827;SDS011;41758;51.992;5.890;2023-04-21T04:04:01;66.68;;;24.90;;
55827;SDS011;41758;51.992;5.890;2023-04-21T04:06:27;67.32;;;25.48;;
55827;SDS011;41758;51.992;5.890;2023-04-21T04:08:53;53.67;;;24.55;;
55827;SDS011;41758;51.992;5.890;2023-04-21T04:11:18;66.55;;;24.52;;
55827;SDS011;41758;51.992;5.890;2023-04-21T04:13:44;55.28;;;24.02;;
55827;SDS011;41758;51.992;5.890;2023-04-21T04:16:10;52.08;;;24.33;;
55827;SDS011;41758;51.992;5.890;2023-04-21T04:18:35;67.20;;;27.02;;
55827;SDS011;41758;51.992;5.890;2023-04-21T04:21:05;59.90;;;28.30;;
55827;SDS011;41758;51.992;5.890;2023-04-21T04:23:31;55.35;;;25.13;;
55827;SDS011;41758;51.992;5.890;2023-04-21T04:25:57;62.38;;;29.48;;
55827;SDS011;41758;51.992;5.890;2023-04-21T04:28:23;67.32;;;28.40;;
55827;SDS011;41758;51.992;5.890;2023-04-21T04:30:49;60.42;;;28.05;;
55827;SDS011;41758;51.992;5.890;2023-04-21T04:33:15;56.20;;;27.05;;
55827;SDS011;41758;51.992;5.890;2023-04-21T04:35:40;64.95;;;27.08;;
55827;SDS011;41758;51.992;5.890;2023-04-21T04:38:06;82.00;;;31.88;;
55827;SDS011;41758;51.992;5.890;2023-04-21T04:40:32;62.50;;;30.23;;
55827;SDS011;41758;51.992;5.890;2023-04-21T04:42:58;74.35;;;30.27;;
55827;SDS011;41758;51.992;5.890;2023-04-21T04:45:25;64.63;;;28.90;;
55827;SDS011;41758;51.992;5.890;2023-04-21T04:47:52;67.95;;;28.42;;
55827;SDS011;41758;51.992;5.890;2023-04-21T04:50:18;72.25;;;34.20;;
55827;SDS011;41758;51.992;5.890;2023-04-21T04:52:44;72.78;;;33.53;;
55827;SDS011;41758;51.992;5.890;2023-04-21T04:55:11;68.35;;;34.90;;
55827;SDS011;41758;51.992;5.890;2023-04-21T04:57:37;60.63;;;30.98;;
55827;SDS011;41758;51.992;5.890;2023-04-21T05:00:04;67.85;;;33.53;;
55827;SDS011;41758;51.992;5.890;2023-04-21T05:02:34;66.60;;;36.10;;
55827;SDS011;41758;51.992;5.890;2023-04-21T05:05:01;66.70;;;35.25;;
55827;SDS011;41758;51.992;5.890;2023-04-21T05:07:27;70.68;;;36.88;;
55827;SDS011;41758;51.992;5.890;2023-04-21T05:09:52;63.58;;;33.65;;
55827;SDS011;41758;51.992;5.890;2023-04-21T05:12:18;57.00;;;31.98;;
55827;SDS011;41758;51.992;5.890;2023-04-21T05:14:44;71.13;;;33.33;;
55827;SDS011;41758;51.992;5.890;2023-04-21T05:17:09;65.95;;;32.88;;
55827;SDS011;41758;51.992;5.890;2023-04-21T05:19:36;72.43;;;31.15;;
55827;SDS011;41758;51.992;5.890;2023-04-21T05:22:02;61.90;;;29.85;;
55827;SDS011;41758;51.992;5.890;2023-04-21T05:24:31;67.18;;;32.78;;
55827;SDS011;41758;51.992;5.890;2023-04-21T05:26:57;62.17;;;35.67;;
55827;SDS011;41758;51.992;5.890;2023-04-21T05:29:22;58.63;;;35.53;;
55827;SDS011;41758;51.992;5.890;2023-04-21T05:31:48;75.47;;;40.13;;
55827;SDS011;41758;51.992;5.890;2023-04-21T05:34:14;68.82;;;38.92;;
55827;SDS011;41758;51.992;5.890;2023-04-21T05:36:40;62.33;;;36.75;;
55827;SDS011;41758;51.992;5.890;2023-04-21T05:39:06;63.63;;;35.78;;
55827;SDS011;41758;51.992;5.890;2023-04-21T05:41:32;59.80;;;33.45;;
55827;SDS011;41758;51.992;5.890;2023-04-21T05:43:58;58.90;;;34.13;;
55827;SDS011;41758;51.992;5.890;2023-04-21T05:46:23;63.38;;;33.60;;
55827;SDS011;41758;51.992;5.890;2023-04-21T05:48:49;61.55;;;30.95;;
55827;SDS011;41758;51.992;5.890;2023-04-21T05:51:15;50.80;;;31.20;;
55827;SDS011;41758;51.992;5.890;2023-04-21T05:53:41;60.25;;;31.25;;
55827;SDS011;41758;51.992;5.890;2023-04-21T05:56:07;59.13;;;31.77;;
55827;SDS011;41758;51.992;5.890;2023-04-21T05:58:34;57.15;;;29.80;;
55827;SDS011;41758;51.992;5.890;2023-04-21T06:01:00;59.03;;;31.27;;
55827;SDS011;41758;51.992;5.890;2023-04-21T06:03:26;54.05;;;28.23;;
55827;SDS011;41758;51.992;5.890;2023-04-21T06:05:54;52.72;;;28.77;;
55827;SDS011;41758;51.992;5.890;2023-04-21T06:08:21;57.58;;;28.30;;
55827;SDS011;41758;51.992;5.890;2023-04-21T06:10:47;54.63;;;28.38;;
55827;SDS011;41758;51.992;5.890;2023-04-21T06:13:13;56.97;;;30.17;;
55827;SDS011;41758;51.992;5.890;2023-04-21T06:15:38;63.10;;;31.83;;
55827;SDS011;41758;51.992;5.890;2023-04-21T06:18:04;54.83;;;29.50;;
55827;SDS011;41758;51.992;5.890;2023-04-21T06:20:30;52.85;;;28.35;;
55827;SDS011;41758;51.992;5.890;2023-04-21T06:22:55;57.53;;;28.40;;
55827;SDS011;41758;51.992;5.890;2023-04-21T06:25:21;51.92;;;28.95;;
55827;SDS011;41758;51.992;5.890;2023-04-21T06:27:47;58.08;;;32.78;;
55827;SDS011;41758;51.992;5.890;2023-04-21T06:30:13;50.80;;;28.90;;
55827;SDS011;41758;51.992;5.890;2023-04-21T06:32:39;67.93;;;33.50;;
55827;SDS011;41758;51.992;5.890;2023-04-21T06:35:05;55.15;;;32.22;;
55827;SDS011;41758;51.992;5.890;2023-04-21T06:37:30;62.42;;;34.15;;
55827;SDS011;41758;51.992;5.890;2023-04-21T06:39:56;61.35;;;35.20;;
55827;SDS011;41758;51.992;5.890;2023-04-21T06:42:22;59.85;;;34.08;;
55827;SDS011;41758;51.992;5.890;2023-04-21T06:44:48;65.97;;;33.95;;
55827;SDS011;41758;51.992;5.890;2023-04-21T06:47:13;57.88;;;32.45;;
55827;SDS011;41758;51.992;5.890;2023-04-21T06:49:40;55.83;;;30.45;;
55827;SDS011;41758;51.992;5.890;2023-04-21T06:52:06;50.95;;;30.27;;
55827;SDS011;41758;51.992;5.890;2023-04-21T06:54:32;60.50;;;32.25;;
55827;SDS011;41758;51.992;5.890;2023-04-21T06:56:58;43.03;;;30.63;;
55827;SDS011;41758;51.992;5.890;2023-04-21T06:59:24;60.63;;;36.08;;
55827;SDS011;41758;51.992;5.890;2023-04-21T07:01:50;63.42;;;34.15;;
55827;SDS011;41758;51.992;5.890;2023-04-21T07:04:18;59.33;;;34.53;;
55827;SDS011;41758;51.992;5.890;2023-04-21T07:06:44;50.85;;;33.65;;
55827;SDS011;41758;51.992;5.890;2023-04-21T07:09:10;60.17;;;34.92;;
55827;SDS011;41758;51.992;5.890;2023-04-21T07:11:36;56.80;;;35.33;;
55827;SDS011;41758;51.992;5.890;2023-04-21T07:14:02;57.25;;;34.78;;
55827;SDS011;41758;51.992;5.890;2023-04-21T07:16:28;58.05;;;34.42;;
55827;SDS011;41758;51.992;5.890;2023-04-21T07:18:53;54.75;;;32.28;;
55827;SDS011;41758;51.992;5.890;2023-04-21T07:21:19;58.47;;;32.15;;
55827;SDS011;41758;51.992;5.890;2023-04-21T07:23:45;50.25;;;31.05;;
55827;SDS011;41758;51.992;5.890;2023-04-21T07:26:11;59.42;;;36.40;;
55827;SDS011;41758;51.992;5.890;2023-04-21T07:28:37;63.70;;;36.58;;
55827;SDS011;41758;51.992;5.890;2023-04-21T07:31:05;66.30;;;35.25;;
55827;SDS011;41758;51.992;5.890;2023-04-21T07:33:31;65.55;;;34.95;;
55827;SDS011;41758;51.992;5.890;2023-04-21T07:35:57;51.78;;;30.88;;
55827;SDS011;41758;51.992;5.890;2023-04-21T07:38:22;55.97;;;32.40;;
55827;SDS011;41758;51.992;5.890;2023-04-21T07:40:48;58.75;;;32.20;;
55827;SDS011;41758;51.992;5.890;2023-04-21T07:43:14;67.18;;;36.22;;
55827;SDS011;41758;51.992;5.890;2023-04-21T07:45:40;63.20;;;36.47;;
55827;SDS011;41758;51.992;5.890;2023-04-21T07:48:06;72.32;;;39.30;;
55827;SDS011;41758;51.992;5.890;2023-04-21T07:50:32;60.28;;;38.30;;
55827;SDS011;41758;51.992;5.890;2023-04-21T07:53:00;62.65;;;34.50;;
55827;SDS011;41758;51.992;5.890;2023-04-21T07:55:26;60.28;;;35.85;;
55827;SDS011;41758;51.992;5.890;2023-04-21T07:57:52;69.07;;;38.08;;
55827;SDS011;41758;51.992;5.890;2023-04-21T08:00:18;54.92;;;38.67;;
55827;SDS011;41758;51.992;5.890;2023-04-21T08:02:44;69.00;;;40.13;;
55827;SDS011;41758;51.992;5.890;2023-04-21T08:05:10;62.90;;;37.45;;
55827;SDS011;41758;51.992;5.890;2023-04-21T08:07:36;68.50;;;39.33;;
55827;SDS011;41758;51.992;5.890;2023-04-21T08:10:01;64.90;;;37.42;;
55827;SDS011;41758;51.992;5.890;2023-04-21T08:12:27;58.83;;;36.58;;
55827;SDS011;41758;51.992;5.890;2023-04-21T08:14:53;54.13;;;34.20;;
55827;SDS011;41758;51.992;5.890;2023-04-21T08:17:19;52.20;;;33.65;;
55827;SDS011;41758;51.992;5.890;2023-04-21T08:19:44;57.83;;;34.45;;
55827;SDS011;41758;51.992;5.890;2023-04-21T08:22:10;56.63;;;33.40;;
55827;SDS011;41758;51.992;5.890;2023-04-21T08:24:36;56.20;;;33.75;;
55827;SDS011;41758;51.992;5.890;2023-04-21T08:27:02;59.22;;;35.55;;
55827;SDS011;41758;51.992;5.890;2023-04-21T08:29:27;64.47;;;36.28;;
55827;SDS011;41758;51.992;5.890;2023-04-21T08:31:53;55.97;;;35.10;;
55827;SDS011;41758;51.992;5.890;2023-04-21T08:34:19;59.72;;;36.20;;
55827;SDS011;41758;51.992;5.890;2023-04-21T08:36:45;51.50;;;35.08;;
55827;SDS011;41758;51.992;5.890;2023-04-21T08:39:12;60.72;;;35.83;;
55827;SDS011;41758;51.992;5.890;2023-04-21T08:41:38;58.30;;;36.75;;
55827;SDS011;41758;51.992;5.890;2023-04-21T08:44:05;62.60;;;38.42;;
55827;SDS011;41758;51.992;5.890;2023-04-21T08:46:31;53.28;;;35.38;;
55827;SDS011;41758;51.992;5.890;2023-04-21T08:48:58;55.53;;;36.63;;
55827;SDS011;41758;51.992;5.890;2023-04-21T08:51:25;54.83;;;37.70;;
55827;SDS011;41758;51.992;5.890;2023-04-21T08:53:53;58.13;;;38.88;;
55827;SDS011;41758;51.992;5.890;2023-04-21T08:56:19;57.25;;;38.22;;
55827;SDS011;41758;51.992;5.890;2023-04-21T08:58:45;55.17;;;39.13;;
55827;SDS011;41758;51.992;5.890;2023-04-21T09:01:10;57.67;;;38.50;;
55827;SDS011;41758;51.992;5.890;2023-04-21T09:03:36;49.47;;;34.78;;
55827;SDS011;41758;51.992;5.890;2023-04-21T09:06:06;53.08;;;35.88;;
55827;SDS011;41758;51.992;5.890;2023-04-21T09:08:35;52.50;;;35.65;;
55827;SDS011;41758;51.992;5.890;2023-04-21T09:11:02;53.13;;;35.67;;
55827;SDS011;41758;51.992;5.890;2023-04-21T09:13:29;60.28;;;39.55;;
55827;SDS011;41758;51.992;5.890;2023-04-21T09:15:56;55.05;;;37.00;;
55827;SDS011;41758;51.992;5.890;2023-04-21T09:18:23;58.33;;;40.08;;
55827;SDS011;41758;51.992;5.890;2023-04-21T09:20:50;55.90;;;37.28;;
55827;SDS011;41758;51.992;5.890;2023-04-21T09:23:28;54.70;;;37.15;;
55827;SDS011;41758;51.992;5.890;2023-04-21T09:25:54;55.75;;;38.30;;
55827;SDS011;41758;51.992;5.890;2023-04-21T09:28:19;49.33;;;35.65;;
55827;SDS011;41758;51.992;5.890;2023-04-21T09:30:45;53.97;;;35.22;;
55827;SDS011;41758;51.992;5.890;2023-04-21T09:33:14;50.38;;;36.17;;
55827;SDS011;41758;51.992;5.890;2023-04-21T09:35:44;50.72;;;34.80;;
55827;SDS011;41758;51.992;5.890;2023-04-21T09:38:10;46.55;;;32.05;;
55827;SDS011;41758;51.992;5.890;2023-04-21T09:40:36;48.00;;;31.65;;
55827;SDS011;41758;51.992;5.890;2023-04-21T09:43:03;41.08;;;29.60;;
55827;SDS011;41758;51.992;5.890;2023-04-21T09:45:29;43.15;;;32.10;;
55827;SDS011;41758;51.992;5.890;2023-04-21T09:47:56;46.20;;;35.97;;
55827;SDS011;41758;51.992;5.890;2023-04-21T09:50:23;53.05;;;38.60;;
55827;SDS011;41758;51.992;5.890;2023-04-21T09:52:50;56.38;;;36.25;;
55827;SDS011;41758;51.992;5.890;2023-04-21T09:55:17;39.28;;;31.35;;
55827;SDS011;41758;51.992;5.890;2023-04-21T09:57:46;43.30;;;31.35;;
55827;SDS011;41758;51.992;5.890;2023-04-21T10:00:13;44.30;;;33.53;;
55827;SDS011;41758;51.992;5.890;2023-04-21T10:02:50;42.65;;;33.97;;
55827;SDS011;41758;51.992;5.890;2023-04-21T10:05:17;49.05;;;36.17;;
55827;SDS011;41758;51.992;5.890;2023-04-21T10:07:44;47.22;;;35.85;;
55827;SDS011;41758;51.992;5.890;2023-04-21T10:10:15;41.25;;;31.63;;
55827;SDS011;41758;51.992;5.890;2023-04-21T10:12:44;46.90;;;32.58;;
55827;SDS011;41758;51.992;5.890;2023-04-21T10:21:03;37.00;;;29.33;;
55827;SDS011;41758;51.992;5.890;2023-04-21T10:26:52;44.40;;;34.60;;
55827;SDS011;41758;51.992;5.890;2023-04-21T10:36:32;45.97;;;33.83;;
55827;SDS011;41758;51.992;5.890;2023-04-21T10:39:11;40.35;;;34.10;;
55827;SDS011;41758;51.992;5.890;2023-04-21T10:44:40;44.45;;;35.03;;
55827;SDS011;41758;51.992;5.890;2023-04-21T10:47:09;40.97;;;32.00;;
55827;SDS011;41758;51.992;5.890;2023-04-21T10:49:38;39.63;;;31.08;;
55827;SDS011;41758;51.992;5.890;2023-04-21T10:52:06;38.53;;;31.52;;
55827;SDS011;41758;51.992;5.890;2023-04-21T10:55:03;35.38;;;28.95;;
55827;SDS011;41758;51.992;5.890;2023-04-21T10:57:31;34.38;;;27.00;;
55827;SDS011;41758;51.992;5.890;2023-04-21T10:59:58;35.10;;;28.48;;
55827;SDS011;41758;51.992;5.890;2023-04-21T11:02:24;33.03;;;28.60;;
55827;SDS011;41758;51.992;5.890;2023-04-21T11:04:50;34.17;;;27.50;;
55827;SDS011;41758;51.992;5.890;2023-04-21T11:09:59;33.03;;;27.38;;
55827;SDS011;41758;51.992;5.890;2023-04-21T11:12:27;31.92;;;27.83;;
55827;SDS011;41758;51.992;5.890;2023-04-21T11:14:54;33.10;;;28.35;;
55827;SDS011;41758;51.992;5.890;2023-04-21T11:17:20;32.85;;;29.23;;
55827;SDS011;41758;51.992;5.890;2023-04-21T11:19:49;31.73;;;28.40;;
55827;SDS011;41758;51.992;5.890;2023-04-21T11:22:19;31.73;;;28.35;;
55827;SDS011;41758;51.992;5.890;2023-04-21T11:24:47;28.95;;;25.75;;
55827;SDS011;41758;51.992;5.890;2023-04-21T11:27:14;29.15;;;25.67;;
55827;SDS011;41758;51.992;5.890;2023-04-21T11:29:43;31.40;;;27.95;;
55827;SDS011;41758;51.992;5.890;2023-04-21T11:32:12;30.33;;;26.88;;
55827;SDS011;41758;51.992;5.890;2023-04-21T11:34:39;27.80;;;24.73;;
55827;SDS011;41758;51.992;5.890;2023-04-21T11:37:06;26.13;;;23.45;;
55827;SDS011;41758;51.992;5.890;2023-04-21T11:39:32;26.33;;;23.55;;
55827;SDS011;41758;51.992;5.890;2023-04-21T11:41:58;34.38;;;29.90;;
55827;SDS011;41758;51.992;5.890;2023-04-21T11:44:31;32.25;;;28.77;;
55827;SDS011;41758;51.992;5.890;2023-04-21T11:47:14;30.38;;;26.83;;
55827;SDS011;41758;51.992;5.890;2023-04-21T11:49:59;30.88;;;26.38;;
55827;SDS011;41758;51.992;5.890;2023-04-21T11:52:27;32.03;;;28.63;;
55827;SDS011;41758;51.992;5.890;2023-04-21T12:00:01;29.30;;;26.15;;
55827;SDS011;41758;51.992;5.890;2023-04-21T12:02:30;29.00;;;24.83;;
55827;SDS011;41758;51.992;5.890;2023-04-21T12:05:06;23.73;;;21.23;;
55827;SDS011;41758;51.992;5.890;2023-04-21T12:07:35;24.80;;;20.80;;
55827;SDS011;41758;51.992;5.890;2023-04-21T12:10:09;24.13;;;21.52;;
55827;SDS011;41758;51.992;5.890;2023-04-21T12:12:36;27.33;;;24.38;;
55827;SDS011;41758;51.992;5.890;2023-04-21T12:15:03;27.58;;;24.67;;
55827;SDS011;41758;51.992;5.890;2023-04-21T12:17:37;28.67;;;25.45;;
55827;SDS011;41758;51.992;5.890;2023-04-21T12:20:04;27.05;;;24.25;;
55827;SDS011;41758;51.992;5.890;2023-04-21T12:22:31;28.13;;;25.13;;
55827;SDS011;41758;51.992;5.890;2023-04-21T12:24:57;26.45;;;23.73;;
55827;SDS011;41758;51.992;5.890;2023-04-21T12:27:23;25.92;;;23.17;;
55827;SDS011;41758;51.992;5.890;2023-04-21T12:29:48;28.30;;;25.15;;
55827;SDS011;41758;51.992;5.890;2023-04-21T12:32:14;28.23;;;25.23;;
55827;SDS011;41758;51.992;5.890;2023-04-21T12:34:40;27.80;;;24.90;;
55827;SDS011;41758;51.992;5.890;2023-04-21T12:37:06;24.38;;;21.98;;
55827;SDS011;41758;51.992;5.890;2023-04-21T12:39:32;24.83;;;22.15;;
55827;SDS011;41758;51.992;5.890;2023-04-21T12:41:58;26.50;;;23.70;;
55827;SDS011;41758;51.992;5.890;2023-04-21T12:44:24;27.35;;;24.45;;
55827;SDS011;41758;51.992;5.890;2023-04-21T12:46:50;27.63;;;24.80;;
55827;SDS011;41758;51.992;5.890;2023-04-21T12:49:16;28.23;;;25.33;;
55827;SDS011;41758;51.992;5.890;2023-04-21T12:51:42;26.00;;;23.25;;
55827;SDS011;41758;51.992;5.890;2023-04-21T12:54:09;27.63;;;24.70;;
55827;SDS011;41758;51.992;5.890;2023-04-21T12:56:36;29.83;;;26.60;;
55827;SDS011;41758;51.992;5.890;2023-04-21T12:59:04;31.83;;;26.48;;
55827;SDS011;41758;51.992;5.890;2023-04-21T13:01:34;29.30;;;26.30;;
55827;SDS011;41758;51.992;5.890;2023-04-21T13:04:01;26.60;;;23.63;;
55827;SDS011;41758;51.992;5.890;2023-04-21T13:06:27;25.60;;;22.80;;
55827;SDS011;41758;51.992;5.890;2023-04-21T13:08:53;22.88;;;20.33;;
55827;SDS011;41758;51.992;5.890;2023-04-21T13:11:20;23.80;;;21.40;;
55827;SDS011;41758;51.992;5.890;2023-04-21T13:13:45;24.08;;;21.48;;
55827;SDS011;41758;51.992;5.890;2023-04-21T13:16:11;22.27;;;19.98;;
55827;SDS011;41758;51.992;5.890;2023-04-21T13:18:37;23.65;;;21.15;;
55827;SDS011;41758;51.992;5.890;2023-04-21T13:21:04;22.33;;;20.13;;
55827;SDS011;41758;51.992;5.890;2023-04-21T13:23:30;21.38;;;19.23;;
55827;SDS011;41758;51.992;5.890;2023-04-21T13:25:56;19.27;;;17.25;;
55827;SDS011;41758;51.992;5.890;2023-04-21T13:28:21;20.88;;;18.67;;
55827;SDS011;41758;51.992;5.890;2023-04-21T13:30:48;20.35;;;18.25;;
55827;SDS011;41758;51.992;5.890;2023-04-21T13:33:17;19.48;;;17.35;;
55827;SDS011;41758;51.992;5.890;2023-04-21T13:35:43;21.50;;;19.23;;
55827;SDS011;41758;51.992;5.890;2023-04-21T13:38:08;20.70;;;18.50;;
55827;SDS011;41758;51.992;5.890;2023-04-21T13:40:34;20.50;;;18.40;;
55827;SDS011;41758;51.992;5.890;2023-04-21T13:43:00;20.15;;;18.23;;
55827;SDS011;41758;51.992;5.890;2023-04-21T13:45:26;21.92;;;19.77;;
55827;SDS011;41758;51.992;5.890;2023-04-21T13:47:52;21.33;;;19.23;;
55827;SDS011;41758;51.992;5.890;2023-04-21T13:50:18;21.27;;;18.92;;
55827;SDS011;41758;51.992;5.890;2023-04-21T13:52:44;20.23;;;18.23;;
55827;SDS011;41758;51.992;5.890;2023-04-21T13:55:09;19.83;;;17.88;;
55827;SDS011;41758;51.992;5.890;2023-04-21T13:57:35;20.52;;;18.42;;
55827;SDS011;41758;51.992;5.890;2023-04-21T14:00:05;19.58;;;17.58;;
55827;SDS011;41758;51.992;5.890;2023-04-21T14:02:33;21.10;;;19.00;;
55827;SDS011;41758;51.992;5.890;2023-04-21T14:04:59;20.42;;;18.42;;
55827;SDS011;41758;51.992;5.890;2023-04-21T14:07:24;21.17;;;18.98;;
55827;SDS011;41758;51.992;5.890;2023-04-21T14:09:50;19.73;;;17.73;;
55827;SDS011;41758;51.992;5.890;2023-04-21T14:12:16;19.45;;;17.48;;
55827;SDS011;41758;51.992;5.890;2023-04-21T14:14:42;16.60;;;14.90;;
55827;SDS011;41758;51.992;5.890;2023-04-21T14:17:08;20.90;;;18.80;;
55827;SDS011;41758;51.992;5.890;2023-04-21T14:19:34;20.67;;;18.50;;
55827;SDS011;41758;51.992;5.890;2023-04-21T14:22:00;20.73;;;18.63;;
55827;SDS011;41758;51.992;5.890;2023-04-21T14:24:26;20.65;;;18.55;;
55827;SDS011;41758;51.992;5.890;2023-04-21T14:26:53;21.00;;;18.90;;
55827;SDS011;41758;51.992;5.890;2023-04-21T14:29:23;19.48;;;17.60;;
55827;SDS011;41758;51.992;5.890;2023-04-21T14:31:49;20.75;;;18.48;;
55827;SDS011;41758;51.992;5.890;2023-04-21T14:34:15;20.63;;;18.52;;
55827;SDS011;41758;51.992;5.890;2023-04-21T14:36:40;20.33;;;18.23;;
55827;SDS011;41758;51.992;5.890;2023-04-21T14:39:07;18.60;;;16.70;;
55827;SDS011;41758;51.992;5.890;2023-04-21T14:41:34;18.83;;;16.92;;
55827;SDS011;41758;51.992;5.890;2023-04-21T14:43:59;17.88;;;16.10;;
55827;SDS011;41758;51.992;5.890;2023-04-21T14:46:27;20.00;;;17.88;;
55827;SDS011;41758;51.992;5.890;2023-04-21T14:48:53;19.52;;;17.63;;